Ana Sayfa
METAR-TAF:

METAR-TAF

Havaalanları :

Kimberley, Güney Afrika

Enlem: 28-48S, Boylam: 024-46E, yükseklik: 1198 m

Güncel hava durumu gözlemi

Rapor saat 01:00 UTC de 1 saat ve 1 dakika önce yapıldı.
Rüzgar kuzey/kuzeydoğudan 7 kt
Sıcaklık 8°C
Nem 57%
Basınç 1031 hPa

METAR: FAKM 230100Z AUTO 02007KT //// 08/00 Q1031

Saat: 04:01 (02:01 UTC)

Tahmin

Rapor saat 09:00 UTC de 17 saat ve 1 dakika önce yapıldı.
Ayın 22'si saat 10 UTC'den ayın 22'si saat 18 UTC'ye kadar geçerli Tahmin
Rüzgar kuzeydan 7 kt
Görüş mesafesi 10 km veya daha fazla
1500 m altında bulut yok ve kümülonimbus yok

TAF: FAKM 220900Z 2210/2218 01007KT CAVOK TX20/2212Z TN10/2218Z

4.000'den fazla havaalanı için hava durumu gözlemleri ve tahminleri (METAR ve TAF raporları).

Kullanılabilir istasyonlar harita üzerinde sarı ve kırmızı noktalarla gösterilir.

İstasyonun adını görmek için fareyi noktanın üzerinde gezdirin.

Sonrasında hava gözlem ve tahminlerini görmek için tıklayın.

Haritayı değiştirmek için: yaklaştırmak için siyah artı işaretli yeşil düğmeye ve uzaklaştırmak için de eksi işaretli düğmeye hızla tıklayın; bitişik haritalar için yeşil okları kullanın.


METAR-TAF: